Time;durP1;ratioP1;P1;durP2;ratioP2;P2;SDS_P1;SDS_P2;PMS_P1;PMS_P2;Temp;Humidity;BMP_temperature;BMP_pressure;BME280_temperature;BME280_humidity;BME280_pressure;Samples;Min_cycle;Max_cycle;Signal;HPM_P1;HPM_P2
2023/06/20 00:01:12;;;;;;;;;;;17.60;99.90;;;;;;5075870;28;19923;-75
2023/06/20 00:03:37;;;;;;;;;;;17.60;99.90;;;;;;5041355;28;19915;-75
2023/06/20 00:06:03;;;;;;;;;;;17.60;99.90;;;;;;5075904;28;19908;-75
2023/06/20 00:08:29;;;;;;;;;;;17.60;99.90;;;;;;5075703;28;19904;-75
2023/06/20 00:10:54;;;;;;;;;;;17.60;99.90;;;;;;5075515;28;19958;-75
2023/06/20 00:13:20;;;;;;;;;;;17.60;99.90;;;;;;5058100;28;19920;-75
2023/06/20 00:15:45;;;;;;;;;;;17.60;99.90;;;;;;5075540;28;19905;-75
2023/06/20 00:18:11;;;;;;;;;;;17.60;99.90;;;;;;5075519;28;19940;-75
2023/06/20 00:20:37;;;;;;;;;;;17.60;99.90;;;;;;5075458;28;19954;-75
2023/06/20 00:23:02;;;;;;;;;;;17.60;99.90;;;;;;5057540;28;19904;-75
2023/06/20 00:25:28;;;;;;;;;;;17.60;99.90;;;;;;5075429;28;19911;-75
2023/06/20 00:27:53;;;;;;;;;;;17.50;99.90;;;;;;5075342;28;19915;-75
2023/06/20 00:30:19;;;;;;;;;;;17.50;99.90;;;;;;5075258;28;19919;-75
2023/06/20 00:32:44;;;;;;;;;;;17.50;99.90;;;;;;5073546;28;19962;-75
2023/06/20 00:35:10;;;;;;;;;;;17.50;99.90;;;;;;5057206;28;19908;-75
2023/06/20 00:37:38;;;;;;;;;;;17.40;99.90;;;;;;5075152;28;19908;-76
2023/06/20 00:40:06;;;;;;;;;;;17.30;99.90;;;;;;5073815;28;19942;-75
2023/06/20 00:42:31;;;;;;;;;;;17.20;99.90;;;;;;5075003;28;19912;-75
2023/06/20 00:44:57;;;;;;;;;;;17.20;99.90;;;;;;5074964;28;19908;-76
2023/06/20 00:47:23;;;;;;;;;;;17.20;99.90;;;;;;5073985;28;19908;-75
2023/06/20 00:49:50;;;;;;;;;;;17.20;99.90;;;;;;5074847;28;20249;-75
2023/06/20 00:52:16;;;;;;;;;;;17.20;99.90;;;;;;5056892;28;19912;-75
2023/06/20 00:54:47;;;;;;;;;;;17.20;99.90;;;;;;5074844;28;19939;-76
2023/06/20 00:57:19;;;;;;;;;;;17.10;99.90;;;;;;5074724;28;20002;-75
2023/06/20 00:59:46;;;;;;;;;;;16.90;99.90;;;;;;5074888;28;19904;-75
2023/06/20 01:02:14;;;;;;;;;;;16.80;99.90;;;;;;5056751;28;19991;-75
2023/06/20 01:04:40;;;;;;;;;;;16.60;99.90;;;;;;5056706;28;19926;-75
2023/06/20 01:07:14;;;;;;;;;;;16.50;99.90;;;;;;5074518;28;19953;-75
2023/06/20 01:09:44;;;;;;;;;;;16.40;99.90;;;;;;5074927;28;20315;-76
2023/06/20 01:12:15;;;;;;;;;;;16.20;99.90;;;;;;5074343;28;19958;-75
2023/06/20 01:14:46;;;;;;;;;;;16.20;99.90;;;;;;5074441;28;20345;-75
2023/06/20 01:17:15;;;;;;;;;;;16.10;99.90;;;;;;5074210;28;19930;-75
2023/06/20 01:20:12;;;;;;;;;;;16.10;99.90;;;;;;5074351;28;20399;-75
2023/06/20 01:22:57;;;;;;;;;;;16.10;99.90;;;;;;5074244;28;19908;-75
2023/06/20 01:25:31;;;;;;;;;;;16.00;99.90;;;;;;5074228;28;19931;-76
2023/06/20 01:28:09;;;;;;;;;;;16.00;99.90;;;;;;5074248;28;19957;-75
2023/06/20 01:30:53;;;;;;;;;;;16.00;99.90;;;;;;5074159;28;19911;-75
2023/06/20 01:33:22;;;;;;;;;;;16.10;99.90;;;;;;5074140;28;19954;-75
2023/06/20 01:35:48;;;;;;;;;;;16.10;99.90;;;;;;5074621;28;19932;-75
2023/06/20 01:38:14;;;;;;;;;;;16.20;99.90;;;;;;5074080;28;19959;-75
2023/06/20 01:40:41;;;;;;;;;;;16.30;99.90;;;;;;5074187;28;19908;-75
2023/06/20 01:43:07;;;;;;;;;;;16.40;99.90;;;;;;5073467;28;19904;-76
2023/06/20 01:45:34;;;;;;;;;;;16.40;99.90;;;;;;5074010;28;19908;-76
2023/06/20 01:48:00;;;;;;;;;;;16.40;99.90;;;;;;5073063;28;20271;-76
2023/06/20 01:50:28;;;;;;;;;;;16.40;99.90;;;;;;5074475;28;19909;-75
2023/06/20 01:52:54;;;;;;;;;;;16.30;99.90;;;;;;5073928;28;20299;-76
2023/06/20 01:55:20;;;;;;;;;;;16.20;99.90;;;;;;5074017;28;19908;-76
2023/06/20 01:57:46;;;;;;;;;;;16.20;99.90;;;;;;5073834;28;19905;-75
2023/06/20 02:00:12;;;;;;;;;;;16.10;99.90;;;;;;5073814;28;19908;-76
2023/06/20 02:02:39;;;;;;;;;;;16.10;99.90;;;;;;5055753;28;20364;-76
2023/06/20 02:05:05;;;;;;;;;;;16.20;99.90;;;;;;5073808;28;19994;-76
2023/06/20 02:07:31;;;;;;;;;;;16.10;99.90;;;;;;5055748;28;20330;-75
2023/06/20 02:09:57;;;;;;;;;;;16.10;99.90;;;;;;5039366;28;19909;-75
2023/06/20 02:12:23;;;;;;;;;;;16.20;99.90;;;;;;5073720;28;19935;-75
2023/06/20 02:14:51;;;;;;;;;;;16.20;99.90;;;;;;5073743;28;20352;-76
2023/06/20 02:17:17;;;;;;;;;;;16.20;99.90;;;;;;5074080;28;19954;-76
2023/06/20 02:19:43;;;;;;;;;;;16.30;99.90;;;;;;5072353;28;19913;-75
2023/06/20 02:22:11;;;;;;;;;;;16.30;99.90;;;;;;5072427;28;19923;-76
2023/06/20 02:24:37;;;;;;;;;;;16.30;99.90;;;;;;5073656;28;19905;-75
2023/06/20 02:27:03;;;;;;;;;;;16.30;99.90;;;;;;5072410;28;19905;-76
2023/06/20 02:29:37;;;;;;;;;;;16.20;99.90;;;;;;5073592;28;19967;-75
2023/06/20 02:32:04;;;;;;;;;;;16.20;99.90;;;;;;5073832;28;19931;-75
2023/06/20 02:34:31;;;;;;;;;;;16.20;99.90;;;;;;5073535;28;19911;-76
2023/06/20 02:36:57;;;;;;;;;;;16.20;99.90;;;;;;5073926;28;19904;-75
2023/06/20 02:39:26;;;;;;;;;;;16.10;99.90;;;;;;5057033;28;20276;-76
2023/06/20 02:41:52;;;;;;;;;;;16.00;99.90;;;;;;5055582;28;19916;-76
2023/06/20 02:44:17;;;;;;;;;;;15.90;99.90;;;;;;5073516;28;19909;-76
2023/06/20 02:47:01;;;;;;;;;;;15.80;99.90;;;;;;5073809;28;19908;-76
2023/06/20 02:49:27;;;;;;;;;;;15.70;99.90;;;;;;5072135;28;19910;-76
2023/06/20 02:52:11;;;;;;;;;;;15.60;99.90;;;;;;5073246;28;19908;-75
2023/06/20 02:54:46;;;;;;;;;;;15.60;99.90;;;;;;5073535;28;19904;-76
2023/06/20 02:57:13;;;;;;;;;;;15.60;99.90;;;;;;5077456;28;19911;-76
2023/06/20 02:59:41;;;;;;;;;;;15.70;99.90;;;;;;5075783;28;19905;-76
2023/06/20 03:02:07;;;;;;;;;;;15.80;99.90;;;;;;5076933;28;19904;-76
2023/06/20 03:04:33;;;;;;;;;;;15.80;99.90;;;;;;5077269;28;19904;-75
2023/06/20 03:07:01;;;;;;;;;;;15.80;99.90;;;;;;5059156;28;19908;-76
2023/06/20 03:09:27;;;;;;;;;;;15.80;99.90;;;;;;5076983;28;19904;-75
2023/06/20 03:11:53;;;;;;;;;;;15.80;99.90;;;;;;5076748;28;19916;-76
2023/06/20 03:14:18;;;;;;;;;;;15.80;99.90;;;;;;5077085;28;19927;-76
2023/06/20 03:16:44;;;;;;;;;;;15.70;99.90;;;;;;5065632;28;19915;-76
2023/06/20 03:19:10;;;;;;;;;;;15.70;99.90;;;;;;5056636;28;19938;-76
2023/06/20 03:21:36;;;;;;;;;;;15.60;99.90;;;;;;5056650;28;19908;-76
2023/06/20 03:24:02;;;;;;;;;;;15.50;99.90;;;;;;5056876;28;20012;-75
2023/06/20 03:26:28;;;;;;;;;;;15.50;99.90;;;;;;5056586;28;19947;-75
2023/06/20 03:28:53;;;;;;;;;;;15.60;99.90;;;;;;5056555;28;19909;-75
2023/06/20 03:31:19;;;;;;;;;;;15.50;99.90;;;;;;5048655;28;20323;-75
2023/06/20 03:33:44;;;;;;;;;;;15.50;99.90;;;;;;5076455;28;19962;-75
2023/06/20 03:36:10;;;;;;;;;;;15.50;99.90;;;;;;5049039;28;19916;-74
2023/06/20 03:38:35;;;;;;;;;;;15.60;99.90;;;;;;5044946;28;19913;-75
2023/06/20 03:41:01;;;;;;;;;;;15.50;99.90;;;;;;5065048;28;19908;-76
2023/06/20 03:43:26;;;;;;;;;;;15.50;99.90;;;;;;5065957;28;19909;-75
2023/06/20 03:45:52;;;;;;;;;;;15.60;99.90;;;;;;5066767;28;19920;-75
2023/06/20 03:48:19;;;;;;;;;;;15.50;99.90;;;;;;5066830;28;19908;-75
2023/06/20 03:50:45;;;;;;;;;;;15.60;99.90;;;;;;5068078;28;19908;-75
2023/06/20 03:53:10;;;;;;;;;;;15.60;99.90;;;;;;5075949;28;20073;-76
2023/06/20 03:55:36;;;;;;;;;;;15.70;99.90;;;;;;5076224;28;19905;-76
2023/06/20 03:58:01;;;;;;;;;;;15.60;99.90;;;;;;5075743;28;20288;-75
2023/06/20 04:00:27;;;;;;;;;;;15.70;99.90;;;;;;5057892;28;20275;-75
2023/06/20 04:02:53;;;;;;;;;;;15.70;99.90;;;;;;5057980;28;20383;-75
2023/06/20 04:05:18;;;;;;;;;;;15.60;99.90;;;;;;5058054;28;19912;-75
2023/06/20 04:07:44;;;;;;;;;;;15.60;99.90;;;;;;5057258;28;19915;-75
2023/06/20 04:10:13;;;;;;;;;;;15.60;99.90;;;;;;5075744;28;20330;-76
2023/06/20 04:12:41;;;;;;;;;;;15.50;99.90;;;;;;5075711;28;20349;-75
2023/06/20 04:15:08;;;;;;;;;;;15.50;99.90;;;;;;5075829;28;19912;-75
2023/06/20 04:17:33;;;;;;;;;;;15.50;99.90;;;;;;5076264;28;20280;-75
2023/06/20 04:20:05;;;;;;;;;;;15.50;99.90;;;;;;5075851;28;19917;-75
2023/06/20 04:22:30;;;;;;;;;;;15.60;99.90;;;;;;5043174;28;19987;-75
2023/06/20 04:24:56;;;;;;;;;;;15.60;99.90;;;;;;5076402;28;20368;-75
2023/06/20 04:27:21;;;;;;;;;;;15.60;99.90;;;;;;5057942;28;19999;-75
2023/06/20 04:29:47;;;;;;;;;;;15.60;99.90;;;;;;5057840;28;20046;-76
2023/06/20 04:32:12;;;;;;;;;;;15.60;99.90;;;;;;5075281;28;19955;-75
2023/06/20 04:34:38;;;;;;;;;;;15.50;99.90;;;;;;5075216;28;19927;-76
2023/06/20 04:37:03;;;;;;;;;;;15.50;99.90;;;;;;5057206;28;19915;-75
2023/06/20 04:39:29;;;;;;;;;;;15.50;99.90;;;;;;5075398;28;19905;-75
2023/06/20 04:41:55;;;;;;;;;;;15.50;99.90;;;;;;5075008;28;20011;-75
2023/06/20 04:44:20;;;;;;;;;;;15.60;99.90;;;;;;5075503;28;19912;-75
2023/06/20 04:46:46;;;;;;;;;;;15.60;99.90;;;;;;5075553;28;19908;-75
2023/06/20 04:49:11;;;;;;;;;;;15.60;99.90;;;;;;5056956;28;19905;-75
2023/06/20 04:51:40;;;;;;;;;;;15.60;99.90;;;;;;5056936;28;20007;-75
2023/06/20 04:54:06;;;;;;;;;;;15.60;99.90;;;;;;5074836;28;19938;-75
2023/06/20 04:56:32;;;;;;;;;;;15.60;99.90;;;;;;5056638;28;20429;-75
2023/06/20 04:58:59;;;;;;;;;;;15.70;99.90;;;;;;5055912;28;19904;-75
2023/06/20 05:01:24;;;;;;;;;;;15.70;99.90;;;;;;5074299;28;20352;-75
2023/06/20 05:03:50;;;;;;;;;;;15.70;99.90;;;;;;5074616;28;19927;-75
2023/06/20 05:06:17;;;;;;;;;;;15.80;99.90;;;;;;5073821;28;19908;-75
2023/06/20 05:08:44;;;;;;;;;;;15.80;99.90;;;;;;5074437;28;19994;-75
2023/06/20 05:11:09;;;;;;;;;;;15.90;99.90;;;;;;5074665;28;19909;-75
2023/06/20 05:13:35;;;;;;;;;;;15.80;99.90;;;;;;5074455;28;20410;-75
2023/06/20 05:16:00;;;;;;;;;;;15.90;99.90;;;;;;5056564;28;20003;-75
2023/06/20 05:18:26;;;;;;;;;;;15.80;99.90;;;;;;5073491;28;19916;-75
2023/06/20 05:20:55;;;;;;;;;;;15.90;99.90;;;;;;5074582;28;19947;-75
2023/06/20 05:23:21;;;;;;;;;;;15.90;99.90;;;;;;5040305;28;19981;-75
2023/06/20 05:25:46;;;;;;;;;;;16.00;99.90;;;;;;5074212;28;20376;-75
2023/06/20 05:28:12;;;;;;;;;;;16.00;99.90;;;;;;5074551;28;19908;-75
2023/06/20 05:30:37;;;;;;;;;;;16.00;99.90;;;;;;5056212;28;19909;-75
2023/06/20 05:33:03;;;;;;;;;;;16.10;99.90;;;;;;5056551;28;19913;-75
2023/06/20 05:35:28;;;;;;;;;;;16.10;99.90;;;;;;5074129;28;20287;-75
2023/06/20 05:37:54;;;;;;;;;;;16.10;99.90;;;;;;5074112;28;19904;-75
2023/06/20 05:40:19;;;;;;;;;;;16.20;99.90;;;;;;5074133;28;19915;-75
2023/06/20 05:42:45;;;;;;;;;;;16.20;99.90;;;;;;5074051;28;19940;-75
2023/06/20 05:45:11;;;;;;;;;;;16.30;99.90;;;;;;5074042;28;19970;-75
2023/06/20 05:47:36;;;;;;;;;;;16.20;99.90;;;;;;5074074;28;19931;-75
2023/06/20 05:50:02;;;;;;;;;;;16.20;99.90;;;;;;5073907;28;19909;-75
2023/06/20 05:52:27;;;;;;;;;;;16.20;99.90;;;;;;5073884;28;19958;-75
2023/06/20 05:54:53;;;;;;;;;;;16.20;99.90;;;;;;5074004;28;19904;-75
2023/06/20 05:57:19;;;;;;;;;;;16.30;99.90;;;;;;5056531;28;20341;-75
2023/06/20 05:59:45;;;;;;;;;;;16.30;99.90;;;;;;5055828;28;20487;-75
2023/06/20 06:02:10;;;;;;;;;;;16.40;99.90;;;;;;5073832;28;19987;-75
2023/06/20 06:04:36;;;;;;;;;;;16.50;99.90;;;;;;5073911;28;19908;-75
2023/06/20 06:07:01;;;;;;;;;;;16.60;99.90;;;;;;5073757;28;19908;-75
2023/06/20 06:09:27;;;;;;;;;;;16.70;99.90;;;;;;5072457;28;19958;-75
2023/06/20 06:11:53;;;;;;;;;;;16.80;99.90;;;;;;5073596;28;19962;-75
2023/06/20 06:14:18;;;;;;;;;;;16.80;99.90;;;;;;5055913;28;19958;-75
2023/06/20 06:16:44;;;;;;;;;;;16.90;99.90;;;;;;5073772;28;19916;-75
2023/06/20 06:19:10;;;;;;;;;;;17.00;99.90;;;;;;5073819;28;20012;-75
2023/06/20 06:21:35;;;;;;;;;;;17.10;99.90;;;;;;5073798;28;19956;-75
2023/06/20 06:24:01;;;;;;;;;;;17.20;99.90;;;;;;5039115;28;19908;-75
2023/06/20 06:26:26;;;;;;;;;;;17.20;99.90;;;;;;5073623;28;20276;-75
2023/06/20 06:28:55;;;;;;;;;;;17.30;99.90;;;;;;5073854;28;19909;-75
2023/06/20 06:31:26;;;;;;;;;;;17.40;99.90;;;;;;5077451;28;19920;-75
2023/06/20 06:33:52;;;;;;;;;;;17.40;99.90;;;;;;5077554;28;20360;-75
2023/06/20 06:36:18;;;;;;;;;;;17.40;99.90;;;;;;5077509;28;20318;-75
2023/06/20 06:38:49;;;;;;;;;;;17.50;99.90;;;;;;5059563;28;19908;-75
2023/06/20 06:41:17;;;;;;;;;;;17.50;99.90;;;;;;5078112;28;20280;-75
2023/06/20 06:43:43;;;;;;;;;;;17.50;99.90;;;;;;5078420;28;19904;-75
2023/06/20 06:46:09;;;;;;;;;;;17.60;99.90;;;;;;5076910;28;19916;-75
2023/06/20 06:48:34;;;;;;;;;;;17.60;99.90;;;;;;5058872;28;19932;-75
2023/06/20 06:51:00;;;;;;;;;;;17.60;99.90;;;;;;5076314;28;20134;-75
2023/06/20 06:53:26;;;;;;;;;;;17.70;99.90;;;;;;5075622;28;24075;-74
2023/06/20 06:55:51;;;;;;;;;;;17.70;99.90;;;;;;5076971;28;19904;-74
2023/06/20 06:58:17;;;;;;;;;;;17.80;99.90;;;;;;5076683;28;24074;-74
2023/06/20 07:00:43;;;;;;;;;;;17.90;99.90;;;;;;5075412;28;19916;-75
2023/06/20 07:03:08;;;;;;;;;;;18.00;99.90;;;;;;5075237;28;24065;-75
2023/06/20 07:05:34;;;;;;;;;;;18.10;99.90;;;;;;5075286;28;19987;-74
2023/06/20 07:07:59;;;;;;;;;;;18.20;99.90;;;;;;5073974;28;19957;-75
2023/06/20 07:10:25;;;;;;;;;;;18.20;99.90;;;;;;5073654;28;20391;-74
2023/06/20 07:12:50;;;;;;;;;;;18.40;99.90;;;;;;5075365;28;19919;-75
2023/06/20 07:15:16;;;;;;;;;;;18.50;99.90;;;;;;5075855;28;24071;-75
2023/06/20 07:17:41;;;;;;;;;;;18.60;99.90;;;;;;5075235;28;20054;-75
2023/06/20 07:20:09;;;;;;;;;;;18.70;99.90;;;;;;5057340;28;19916;-75
2023/06/20 07:22:34;;;;;;;;;;;18.80;99.90;;;;;;5074825;28;20394;-75
2023/06/20 07:25:00;;;;;;;;;;;18.90;99.90;;;;;;5075006;28;19912;-75
2023/06/20 07:27:25;;;;;;;;;;;19.00;99.90;;;;;;5074755;28;19948;-75
2023/06/20 07:29:51;;;;;;;;;;;19.10;99.90;;;;;;5074929;28;19908;-75
2023/06/20 07:32:18;;;;;;;;;;;19.20;99.90;;;;;;5074715;28;19933;-75
2023/06/20 07:34:44;;;;;;;;;;;19.30;99.90;;;;;;5074025;28;19908;-75
2023/06/20 07:37:09;;;;;;;;;;;19.50;99.90;;;;;;5091423;22;19912;-75
2023/06/20 07:39:38;;;;;;;;;;;19.60;99.90;;;;;;5072599;28;20039;-75
2023/06/20 07:42:04;;;;;;;;;;;19.80;99.90;;;;;;5074091;28;20031;-76
2023/06/20 07:44:29;;;;;;;;;;;19.90;99.90;;;;;;5075465;28;19938;-76
2023/06/20 07:46:55;;;;;;;;;;;20.10;99.90;;;;;;5075561;28;19931;-75
2023/06/20 07:49:20;;;;;;;;;;;20.20;99.90;;;;;;5075882;28;20260;-75
2023/06/20 07:51:46;;;;;;;;;;;20.30;99.90;;;;;;5075992;28;19917;-74
2023/06/20 07:54:14;;;;;;;;;;;20.40;99.90;;;;;;5076005;28;20280;-74
2023/06/20 07:56:39;;;;;;;;;;;20.50;99.90;;;;;;5075937;28;19947;-74
2023/06/20 07:59:05;;;;;;;;;;;20.60;99.90;;;;;;5075870;28;19955;-74
2023/06/20 08:01:31;;;;;;;;;;;20.60;99.90;;;;;;5076052;28;19991;-74
2023/06/20 08:03:57;;;;;;;;;;;20.70;99.90;;;;;;5075842;28;19951;-74
2023/06/20 08:06:22;;;;;;;;;;;20.80;99.90;;;;;;5076082;28;19967;-74
2023/06/20 08:08:48;;;;;;;;;;;20.80;99.90;;;;;;5075677;28;19919;-74
2023/06/20 08:11:13;;;;;;;;;;;20.90;99.90;;;;;;5057692;28;19957;-74
2023/06/20 08:13:39;;;;;;;;;;;20.90;99.90;;;;;;5075605;28;19997;-74
2023/06/20 08:16:04;;;;;;;;;;;21.00;99.90;;;;;;5075862;28;20275;-75
2023/06/20 08:18:30;;;;;;;;;;;21.10;99.90;;;;;;5075475;28;20418;-74
2023/06/20 08:20:55;;;;;;;;;;;21.20;99.90;;;;;;5076107;28;19904;-74
2023/06/20 08:23:26;;;;;;;;;;;21.40;99.90;;;;;;5075431;28;20265;-74
2023/06/20 08:25:56;;;;;;;;;;;21.50;99.90;;;;;;5075694;28;19905;-74
2023/06/20 08:28:22;;;;;;;;;;;21.70;99.90;;;;;;5075280;28;19955;-74
2023/06/20 08:30:47;;;;;;;;;;;21.90;99.90;;;;;;5057346;28;19908;-74
2023/06/20 08:33:13;;;;;;;;;;;22.10;99.90;;;;;;5075416;28;19962;-74
2023/06/20 08:35:39;;;;;;;;;;;22.20;99.90;;;;;;5075449;28;19983;-74
2023/06/20 08:38:05;;;;;;;;;;;22.40;99.90;;;;;;5075081;28;19920;-74
2023/06/20 08:40:31;;;;;;;;;;;22.50;99.90;;;;;;5075060;28;20317;-74
2023/06/20 08:42:56;;;;;;;;;;;22.60;99.90;;;;;;5075032;28;19939;-74
2023/06/20 08:45:22;;;;;;;;;;;22.70;99.90;;;;;;5075533;28;19908;-74
2023/06/20 08:47:48;;;;;;;;;;;22.90;99.90;;;;;;5074864;28;19919;-74
2023/06/20 08:50:13;;;;;;;;;;;23.00;99.90;;;;;;5074838;28;20275;-74
2023/06/20 08:52:47;;;;;;;;;;;23.10;99.90;;;;;;5056741;28;20299;-74
2023/06/20 08:55:15;;;;;;;;;;;23.20;99.90;;;;;;5075310;28;19904;-75
2023/06/20 08:57:41;;;;;;;;;;;23.40;99.90;;;;;;5074682;28;19950;-75
2023/06/20 09:00:08;;;;;;;;;;;23.50;99.90;;;;;;5074976;28;19908;-75
2023/06/20 09:02:33;;;;;;;;;;;23.60;99.90;;;;;;5074936;28;19947;-75
2023/06/20 09:05:00;;;;;;;;;;;23.70;99.90;;;;;;5074878;28;19905;-74
2023/06/20 09:07:32;;;;;;;;;;;23.80;99.90;;;;;;5074484;28;19904;-75
2023/06/20 09:09:59;;;;;;;;;;;23.90;99.90;;;;;;5074578;28;19908;-74
2023/06/20 09:12:25;;;;;;;;;;;24.00;99.90;;;;;;5074433;28;19908;-74
2023/06/20 09:14:51;;;;;;;;;;;24.10;99.90;;;;;;5074421;28;20364;-74
2023/06/20 09:17:19;;;;;;;;;;;24.20;99.90;;;;;;5074330;28;19944;-73
2023/06/20 09:19:46;;;;;;;;;;;24.30;99.90;;;;;;5074309;28;19905;-72
2023/06/20 09:22:15;;;;;;;;;;;24.50;99.90;;;;;;5056392;28;20427;-73
2023/06/20 09:24:44;;;;;;;;;;;24.70;99.90;;;;;;5074286;28;19904;-73
2023/06/20 09:27:10;;;;;;;;;;;24.90;99.90;;;;;;5056235;28;19904;-73
2023/06/20 09:29:52;;;;;;;;;;;25.20;98.90;;;;;;5074258;28;19904;-73
2023/06/20 09:32:20;;;;;;;;;;;25.40;99.10;;;;;;5074252;28;19909;-73
2023/06/20 09:34:46;;;;;;;;;;;25.60;98.90;;;;;;5074152;28;19912;-73
2023/06/20 09:37:14;;;;;;;;;;;25.80;97.80;;;;;;5073959;28;19904;-73
2023/06/20 09:39:39;;;;;;;;;;;26.00;95.50;;;;;;5074421;28;19908;-73
2023/06/20 09:42:10;;;;;;;;;;;26.10;96.30;;;;;;5074143;28;19912;-73
2023/06/20 09:44:36;;;;;;;;;;;26.30;95.40;;;;;;5074625;28;19910;-73
2023/06/20 09:47:01;;;;;;;;;;;26.40;95.40;;;;;;5073930;28;19995;-73
2023/06/20 09:49:29;;;;;;;;;;;26.50;94.20;;;;;;5074216;28;19943;-73
2023/06/20 09:51:56;;;;;;;;;;;26.60;93.30;;;;;;5074098;28;19958;-73
2023/06/20 09:54:34;;;;;;;;;;;26.60;94.10;;;;;;5055911;28;19911;-73
2023/06/20 09:57:04;;;;;;;;;;;26.70;92.40;;;;;;5074184;28;20102;-73
2023/06/20 09:59:31;;;;;;;;;;;26.80;92.50;;;;;;5073860;28;19904;-73
2023/06/20 10:01:58;;;;;;;;;;;26.80;93.60;;;;;;5073839;28;19904;-73
2023/06/20 10:04:24;;;;;;;;;;;27.00;92.40;;;;;;5073295;28;19904;-73
2023/06/20 10:06:50;;;;;;;;;;;27.00;91.70;;;;;;5074117;28;20257;-73
2023/06/20 10:09:16;;;;;;;;;;;27.10;90.40;;;;;;5073645;28;20260;-73
2023/06/20 10:11:41;;;;;;;;;;;27.00;91.10;;;;;;5073611;28;19912;-73
2023/06/20 10:14:08;;;;;;;;;;;27.20;90.60;;;;;;5073678;28;19931;-73
2023/06/20 10:16:34;;;;;;;;;;;27.20;86.50;;;;;;5073639;28;19935;-73
2023/06/20 10:19:18;;;;;;;;;;;27.30;89.20;;;;;;5073511;28;20299;-73
2023/06/20 10:22:00;;;;;;;;;;;27.30;89.00;;;;;;5073601;28;19999;-72
2023/06/20 10:24:27;;;;;;;;;;;27.40;89.20;;;;;;5056091;28;19920;-73
2023/06/20 10:26:54;;;;;;;;;;;27.50;86.70;;;;;;5073850;28;19908;-73
2023/06/20 10:29:23;;;;;;;;;;;27.60;86.80;;;;;;5073424;28;19911;-73
2023/06/20 10:32:04;;;;;;;;;;;27.80;82.10;;;;;;5073435;28;19916;-73
2023/06/20 10:34:33;;;;;;;;;;;27.90;82.80;;;;;;5073472;28;19905;-73
2023/06/20 10:37:28;;;;;;;;;;;28.00;83.50;;;;;;5073391;28;19931;-73
2023/06/20 10:39:55;;;;;;;;;;;28.00;78.40;;;;;;5051666;28;20290;-73
2023/06/20 10:42:30;;;;;;;;;;;28.10;79.10;;;;;;5073432;28;19950;-73
2023/06/20 10:45:15;;;;;;;;;;;28.20;78.70;;;;;;5055411;28;19943;-73
2023/06/20 10:47:41;;;;;;;;;;;28.40;73.90;;;;;;5073480;28;19950;-73
2023/06/20 10:50:07;;;;;;;;;;;28.60;76.70;;;;;;5073323;28;19985;-73
2023/06/20 10:52:34;;;;;;;;;;;28.60;69.60;;;;;;5073435;28;20360;-73
2023/06/20 10:54:59;;;;;;;;;;;28.60;70.40;;;;;;5073318;28;19908;-73
2023/06/20 10:57:25;;;;;;;;;;;28.70;70.50;;;;;;5073920;28;20372;-73
2023/06/20 10:59:50;;;;;;;;;;;28.60;71.70;;;;;;5073943;28;19908;-73
2023/06/20 11:02:16;;;;;;;;;;;28.70;74.80;;;;;;5073313;28;19916;-73
2023/06/20 11:04:41;;;;;;;;;;;28.80;73.80;;;;;;5073221;28;19915;-73
2023/06/20 11:07:07;;;;;;;;;;;28.90;73.70;;;;;;5073133;28;19912;-73
2023/06/20 11:09:38;;;;;;;;;;;29.10;74.30;;;;;;5073153;28;20003;-73
2023/06/20 11:12:07;;;;;;;;;;;29.20;73.60;;;;;;5073165;28;20003;-72
2023/06/20 11:14:32;;;;;;;;;;;29.30;74.80;;;;;;5073123;28;19916;-73
2023/06/20 11:16:58;;;;;;;;;;;29.30;71.80;;;;;;5056918;28;19935;-73
2023/06/20 11:19:26;;;;;;;;;;;29.30;75.70;;;;;;5076701;28;20419;-73
2023/06/20 11:21:52;;;;;;;;;;;29.30;73.10;;;;;;5076960;28;19999;-73
2023/06/20 11:24:19;;;;;;;;;;;29.40;75.50;;;;;;5076896;28;19978;-73
2023/06/20 11:26:44;;;;;;;;;;;29.50;75.40;;;;;;5076608;28;19909;-73
2023/06/20 11:29:10;;;;;;;;;;;29.70;74.20;;;;;;5076698;28;20003;-73
2023/06/20 11:31:35;;;;;;;;;;;29.60;72.50;;;;;;5058407;28;19913;-73
2023/06/20 11:34:04;;;;;;;;;;;29.70;75.80;;;;;;5076675;28;19905;-73
2023/06/20 11:36:31;;;;;;;;;;;29.90;72.90;;;;;;5076400;28;19904;-73
2023/06/20 11:39:05;;;;;;;;;;;29.90;71.90;;;;;;5075923;28;19962;-73
2023/06/20 11:41:31;;;;;;;;;;;30.00;71.70;;;;;;5076508;28;20340;-73
2023/06/20 11:43:57;;;;;;;;;;;30.10;74.30;;;;;;5076142;28;19909;-73
2023/06/20 11:46:22;;;;;;;;;;;30.20;76.80;;;;;;5076213;28;19915;-73
2023/06/20 11:48:52;;;;;;;;;;;30.20;72.50;;;;;;5076123;28;19919;-73
2023/06/20 11:51:21;;;;;;;;;;;30.20;72.60;;;;;;5076221;28;19904;-73
2023/06/20 11:53:46;;;;;;;;;;;30.30;73.80;;;;;;5076036;28;19908;-73
2023/06/20 11:56:14;;;;;;;;;;;30.40;69.90;;;;;;5076226;28;20414;-73
2023/06/20 11:58:43;;;;;;;;;;;30.40;70.40;;;;;;5075973;28;20316;-74
2023/06/20 12:01:16;;;;;;;;;;;30.60;74.60;;;;;;5076198;28;19951;-74
2023/06/20 12:03:43;;;;;;;;;;;30.60;73.30;;;;;;5076158;28;19912;-74
2023/06/20 12:06:28;;;;;;;;;;;30.70;72.20;;;;;;5075777;28;20359;-75
2023/06/20 12:08:55;;;;;;;;;;;30.80;71.00;;;;;;5075668;28;19904;-73
2023/06/20 12:11:21;;;;;;;;;;;30.80;68.40;;;;;;5075634;28;19999;-74
2023/06/20 12:13:47;;;;;;;;;;;30.80;69.00;;;;;;5075921;28;19939;-74
2023/06/20 12:16:13;;;;;;;;;;;30.80;72.40;;;;;;5075706;28;20360;-74
2023/06/20 12:18:39;;;;;;;;;;;30.90;70.30;;;;;;5075648;28;19987;-73
2023/06/20 12:21:04;;;;;;;;;;;30.90;71.00;;;;;;5075692;28;19908;-74
2023/06/20 12:23:30;;;;;;;;;;;30.90;70.20;;;;;;5075721;28;20013;-74
2023/06/20 12:25:56;;;;;;;;;;;31.00;70.90;;;;;;5075640;28;19905;-73
2023/06/20 12:28:22;;;;;;;;;;;31.10;70.10;;;;;;5074941;28;19961;-73
2023/06/20 12:30:47;;;;;;;;;;;31.10;69.50;;;;;;5075545;28;19916;-74
2023/06/20 12:33:13;;;;;;;;;;;31.10;69.70;;;;;;5075220;28;20030;-74
2023/06/20 12:35:39;;;;;;;;;;;31.20;71.00;;;;;;5075124;28;19915;-73
2023/06/20 12:38:04;;;;;;;;;;;31.20;70.60;;;;;;5075070;28;19922;-74
2023/06/20 12:40:30;;;;;;;;;;;31.20;70.40;;;;;;5075086;28;19908;-74
2023/06/20 12:42:55;;;;;;;;;;;31.30;70.30;;;;;;5057369;28;19905;-73
2023/06/20 12:45:21;;;;;;;;;;;31.40;70.70;;;;;;5067874;28;19912;-74
2023/06/20 12:47:47;;;;;;;;;;;31.50;70.60;;;;;;5054989;28;20257;-73
2023/06/20 12:50:12;;;;;;;;;;;31.60;69.70;;;;;;5074314;28;19955;-73
2023/06/20 12:52:38;;;;;;;;;;;31.80;66.70;;;;;;5074510;28;19920;-73
2023/06/20 12:55:05;;;;;;;;;;;31.90;63.70;;;;;;5074660;28;20245;-75
2023/06/20 12:57:31;;;;;;;;;;;32.10;59.20;;;;;;5073631;28;19995;-74
2023/06/20 12:59:58;;;;;;;;;;;32.10;59.30;;;;;;5056090;28;20431;-73
2023/06/20 13:02:24;;;;;;;;;;;32.20;59.50;;;;;;5074488;28;20261;-73
2023/06/20 13:04:53;;;;;;;;;;;32.30;56.40;;;;;;5074486;28;20015;-73
2023/06/20 13:07:22;;;;;;;;;;;32.40;58.00;;;;;;5074354;28;19904;-73
2023/06/20 13:09:48;;;;;;;;;;;32.40;55.20;;;;;;5074453;28;19904;-73
2023/06/20 13:12:14;;;;;;;;;;;32.50;58.00;;;;;;5074115;28;19959;-74
2023/06/20 13:14:41;;;;;;;;;;;32.50;55.30;;;;;;5073117;28;20473;-76
2023/06/20 13:17:07;;;;;;;;;;;32.40;56.80;;;;;;5072130;28;19904;-74
2023/06/20 13:19:33;;;;;;;;;;;32.50;55.20;;;;;;5072339;28;25155;-75
2023/06/20 13:21:58;;;;;;;;;;;32.50;55.60;;;;;;5073189;28;24140;-75
2023/06/20 13:24:24;;;;;;;;;;;32.40;58.50;;;;;;5073412;28;20391;-76
2023/06/20 13:26:49;;;;;;;;;;;32.50;56.30;;;;;;5074379;28;20485;-76
2023/06/20 13:29:15;;;;;;;11.57;3.83;;;32.50;54.00;;;;;;5073692;28;20349;-75
2023/06/20 13:31:40;;;;;;;16.88;3.75;;;32.60;54.00;;;;;;5073666;28;20065;-75
2023/06/20 13:34:07;;;;;;;11.90;4.20;;;32.60;51.80;;;;;;5056000;28;20388;-76
2023/06/20 13:36:33;;;;;;;11.10;3.07;;;32.60;52.40;;;;;;5072204;28;20035;-75
2023/06/20 13:39:00;;;;;;;12.85;3.65;;;32.70;51.70;;;;;;5072926;28;20037;-75
2023/06/20 13:41:26;;;;;;;12.93;3.65;;;32.80;51.30;;;;;;5073560;28;20032;-75
2023/06/20 13:43:52;;;;;;;11.82;3.38;;;32.90;52.40;;;;;;5055478;28;20027;-76
2023/06/20 13:46:21;;;;;;;9.13;3.20;;;33.00;51.50;;;;;;5073703;28;20103;-76
2023/06/20 13:48:48;;;;;;;9.07;3.33;;;33.10;52.70;;;;;;5073538;28;20100;-75
2023/06/20 13:51:15;;;;;;;9.38;3.45;;;33.20;55.50;;;;;;5073336;28;20027;-76
2023/06/20 13:53:41;;;;;;;8.90;3.13;;;33.50;53.30;;;;;;5073420;28;20021;-76
2023/06/20 13:56:07;;;;;;;8.88;3.58;;;33.50;51.30;;;;;;5073650;28;20021;-76
2023/06/20 13:58:33;;;;;;;11.30;3.75;;;33.50;49.50;;;;;;5073424;28;20021;-75
2023/06/20 14:00:59;;;;;;;12.45;4.03;;;33.50;52.40;;;;;;5073620;28;20055;-76
2023/06/20 14:03:27;;;;;;;14.73;4.25;;;33.70;54.70;;;;;;5073240;28;20064;-76
2023/06/20 14:05:56;;;;;;;10.00;3.30;;;33.80;50.20;;;;;;5073814;28;20111;-76
2023/06/20 14:08:23;;;;;;;10.32;3.60;;;33.70;52.10;;;;;;5073221;28;20036;-75
2023/06/20 14:10:49;;;;;;;11.30;3.53;;;33.60;52.70;;;;;;5073224;28;20071;-75